sensor_id;sensor_type;location;lat;lon;timestamp;P1;durP1;ratioP1;P2;durP2;ratioP2
20476;SDS011;10397;50.948;11.092;2023-02-11T00:00:39;19.13;;;14.40;;
20476;SDS011;10397;50.948;11.092;2023-02-11T00:03:09;21.67;;;14.03;;
20476;SDS011;10397;50.948;11.092;2023-02-11T00:05:40;22.90;;;14.93;;
20476;SDS011;10397;50.948;11.092;2023-02-11T00:08:11;23.90;;;14.73;;
20476;SDS011;10397;50.948;11.092;2023-02-11T00:10:42;22.33;;;14.67;;
20476;SDS011;10397;50.948;11.092;2023-02-11T00:13:14;27.13;;;14.47;;
20476;SDS011;10397;50.948;11.092;2023-02-11T00:15:45;24.30;;;16.20;;
20476;SDS011;10397;50.948;11.092;2023-02-11T00:18:16;20.83;;;14.63;;
20476;SDS011;10397;50.948;11.092;2023-02-11T00:20:47;21.53;;;14.63;;
20476;SDS011;10397;50.948;11.092;2023-02-11T00:23:18;21.27;;;12.23;;
20476;SDS011;10397;50.948;11.092;2023-02-11T00:25:49;20.20;;;14.90;;
20476;SDS011;10397;50.948;11.092;2023-02-11T00:28:20;20.93;;;14.67;;
20476;SDS011;10397;50.948;11.092;2023-02-11T00:30:55;21.57;;;14.63;;
20476;SDS011;10397;50.948;11.092;2023-02-11T00:33:25;22.43;;;15.23;;
20476;SDS011;10397;50.948;11.092;2023-02-11T00:35:56;21.53;;;15.07;;
20476;SDS011;10397;50.948;11.092;2023-02-11T00:38:27;20.07;;;14.60;;
20476;SDS011;10397;50.948;11.092;2023-02-11T00:40:58;21.60;;;16.77;;
20476;SDS011;10397;50.948;11.092;2023-02-11T00:43:29;24.60;;;15.60;;
20476;SDS011;10397;50.948;11.092;2023-02-11T00:46:00;22.00;;;14.87;;
20476;SDS011;10397;50.948;11.092;2023-02-11T00:48:31;22.43;;;14.77;;
20476;SDS011;10397;50.948;11.092;2023-02-11T00:51:02;22.43;;;15.37;;
20476;SDS011;10397;50.948;11.092;2023-02-11T00:53:32;29.77;;;15.93;;
20476;SDS011;10397;50.948;11.092;2023-02-11T00:56:03;26.13;;;16.17;;
20476;SDS011;10397;50.948;11.092;2023-02-11T00:58:33;24.87;;;15.47;;
20476;SDS011;10397;50.948;11.092;2023-02-11T01:01:04;26.60;;;15.27;;
20476;SDS011;10397;50.948;11.092;2023-02-11T01:03:34;25.60;;;15.30;;
20476;SDS011;10397;50.948;11.092;2023-02-11T01:06:06;23.83;;;16.27;;
20476;SDS011;10397;50.948;11.092;2023-02-11T01:08:36;27.57;;;16.47;;
20476;SDS011;10397;50.948;11.092;2023-02-11T01:11:10;24.20;;;15.40;;
20476;SDS011;10397;50.948;11.092;2023-02-11T01:13:37;22.67;;;16.47;;
20476;SDS011;10397;50.948;11.092;2023-02-11T01:16:09;25.53;;;16.93;;
20476;SDS011;10397;50.948;11.092;2023-02-11T01:18:39;25.03;;;16.30;;
20476;SDS011;10397;50.948;11.092;2023-02-11T01:21:09;22.23;;;15.40;;
20476;SDS011;10397;50.948;11.092;2023-02-11T01:23:39;24.30;;;15.40;;
20476;SDS011;10397;50.948;11.092;2023-02-11T01:26:10;26.67;;;15.73;;
20476;SDS011;10397;50.948;11.092;2023-02-11T01:28:41;24.57;;;15.87;;
20476;SDS011;10397;50.948;11.092;2023-02-11T01:31:12;27.60;;;16.47;;
20476;SDS011;10397;50.948;11.092;2023-02-11T01:33:43;24.10;;;14.17;;
20476;SDS011;10397;50.948;11.092;2023-02-11T01:36:13;25.17;;;16.30;;
20476;SDS011;10397;50.948;11.092;2023-02-11T01:38:45;23.17;;;14.33;;
20476;SDS011;10397;50.948;11.092;2023-02-11T01:41:15;25.50;;;16.37;;
20476;SDS011;10397;50.948;11.092;2023-02-11T01:43:47;26.50;;;16.47;;
20476;SDS011;10397;50.948;11.092;2023-02-11T01:46:30;22.63;;;14.93;;
20476;SDS011;10397;50.948;11.092;2023-02-11T01:49:06;26.00;;;15.80;;
20476;SDS011;10397;50.948;11.092;2023-02-11T01:51:41;23.40;;;16.83;;
20476;SDS011;10397;50.948;11.092;2023-02-11T01:54:10;24.30;;;16.23;;
20476;SDS011;10397;50.948;11.092;2023-02-11T01:56:58;23.97;;;15.87;;
20476;SDS011;10397;50.948;11.092;2023-02-11T02:02:19;24.90;;;15.57;;
20476;SDS011;10397;50.948;11.092;2023-02-11T02:04:52;23.20;;;14.57;;
20476;SDS011;10397;50.948;11.092;2023-02-11T02:07:32;29.10;;;16.93;;
20476;SDS011;10397;50.948;11.092;2023-02-11T02:10:07;31.23;;;17.43;;
20476;SDS011;10397;50.948;11.092;2023-02-11T02:12:35;29.07;;;17.50;;
20476;SDS011;10397;50.948;11.092;2023-02-11T02:21:04;21.57;;;14.77;;
20476;SDS011;10397;50.948;11.092;2023-02-11T02:34:27;21.73;;;15.27;;
20476;SDS011;10397;50.948;11.092;2023-02-11T02:39:38;23.83;;;15.53;;
20476;SDS011;10397;50.948;11.092;2023-02-11T02:42:09;23.97;;;15.07;;
20476;SDS011;10397;50.948;11.092;2023-02-11T02:44:40;23.20;;;14.97;;
20476;SDS011;10397;50.948;11.092;2023-02-11T02:47:11;27.90;;;16.57;;
20476;SDS011;10397;50.948;11.092;2023-02-11T02:49:42;26.60;;;15.63;;
20476;SDS011;10397;50.948;11.092;2023-02-11T02:55:06;25.43;;;14.57;;
20476;SDS011;10397;50.948;11.092;2023-02-11T03:00:53;24.33;;;15.40;;
20476;SDS011;10397;50.948;11.092;2023-02-11T03:06:07;25.60;;;15.83;;
20476;SDS011;10397;50.948;11.092;2023-02-11T03:08:42;24.70;;;15.10;;
20476;SDS011;10397;50.948;11.092;2023-02-11T03:11:11;27.00;;;16.73;;
20476;SDS011;10397;50.948;11.092;2023-02-11T03:13:42;26.10;;;16.53;;
20476;SDS011;10397;50.948;11.092;2023-02-11T03:16:17;22.47;;;16.43;;
20476;SDS011;10397;50.948;11.092;2023-02-11T03:18:48;31.77;;;16.43;;
20476;SDS011;10397;50.948;11.092;2023-02-11T03:21:20;25.53;;;15.80;;
20476;SDS011;10397;50.948;11.092;2023-02-11T03:23:54;26.87;;;16.63;;
20476;SDS011;10397;50.948;11.092;2023-02-11T03:26:27;24.87;;;16.50;;
20476;SDS011;10397;50.948;11.092;2023-02-11T03:29:09;27.47;;;16.37;;
20476;SDS011;10397;50.948;11.092;2023-02-11T03:31:57;24.83;;;15.20;;
20476;SDS011;10397;50.948;11.092;2023-02-11T03:34:37;24.87;;;16.57;;
20476;SDS011;10397;50.948;11.092;2023-02-11T03:39:58;29.67;;;18.10;;
20476;SDS011;10397;50.948;11.092;2023-02-11T03:42:30;25.17;;;16.37;;
20476;SDS011;10397;50.948;11.092;2023-02-11T03:44:59;26.90;;;17.33;;
20476;SDS011;10397;50.948;11.092;2023-02-11T03:47:27;27.07;;;16.67;;
20476;SDS011;10397;50.948;11.092;2023-02-11T03:49:58;27.73;;;17.37;;
20476;SDS011;10397;50.948;11.092;2023-02-11T03:52:29;28.57;;;18.07;;
20476;SDS011;10397;50.948;11.092;2023-02-11T03:55:00;30.57;;;19.53;;
20476;SDS011;10397;50.948;11.092;2023-02-11T03:57:30;31.80;;;19.33;;
20476;SDS011;10397;50.948;11.092;2023-02-11T04:00:03;37.60;;;19.57;;
20476;SDS011;10397;50.948;11.092;2023-02-11T04:02:33;31.07;;;20.83;;
20476;SDS011;10397;50.948;11.092;2023-02-11T04:05:03;31.80;;;21.03;;
20476;SDS011;10397;50.948;11.092;2023-02-11T04:07:33;31.13;;;18.73;;
20476;SDS011;10397;50.948;11.092;2023-02-11T04:10:04;28.50;;;19.73;;
20476;SDS011;10397;50.948;11.092;2023-02-11T04:12:34;30.57;;;18.87;;
20476;SDS011;10397;50.948;11.092;2023-02-11T04:15:05;27.80;;;17.67;;
20476;SDS011;10397;50.948;11.092;2023-02-11T04:17:36;33.30;;;19.47;;
20476;SDS011;10397;50.948;11.092;2023-02-11T04:20:06;28.27;;;19.63;;
20476;SDS011;10397;50.948;11.092;2023-02-11T04:22:37;33.70;;;20.37;;
20476;SDS011;10397;50.948;11.092;2023-02-11T04:25:08;33.47;;;20.47;;
20476;SDS011;10397;50.948;11.092;2023-02-11T04:27:38;35.13;;;21.93;;
20476;SDS011;10397;50.948;11.092;2023-02-11T04:30:10;36.57;;;21.10;;
20476;SDS011;10397;50.948;11.092;2023-02-11T04:32:40;32.73;;;19.50;;
20476;SDS011;10397;50.948;11.092;2023-02-11T04:35:11;34.70;;;19.87;;
20476;SDS011;10397;50.948;11.092;2023-02-11T04:37:42;35.53;;;21.23;;
20476;SDS011;10397;50.948;11.092;2023-02-11T04:40:13;36.10;;;21.17;;
20476;SDS011;10397;50.948;11.092;2023-02-11T04:42:44;33.63;;;20.73;;
20476;SDS011;10397;50.948;11.092;2023-02-11T04:45:15;30.37;;;21.17;;
20476;SDS011;10397;50.948;11.092;2023-02-11T04:47:46;34.93;;;21.07;;
20476;SDS011;10397;50.948;11.092;2023-02-11T04:52:50;31.23;;;20.80;;
20476;SDS011;10397;50.948;11.092;2023-02-11T04:55:21;33.37;;;20.00;;
20476;SDS011;10397;50.948;11.092;2023-02-11T04:57:52;37.00;;;20.67;;
20476;SDS011;10397;50.948;11.092;2023-02-11T05:00:22;36.37;;;21.87;;
20476;SDS011;10397;50.948;11.092;2023-02-11T05:02:53;32.93;;;20.63;;
20476;SDS011;10397;50.948;11.092;2023-02-11T05:05:24;32.13;;;19.87;;
20476;SDS011;10397;50.948;11.092;2023-02-11T05:07:55;34.80;;;20.87;;
20476;SDS011;10397;50.948;11.092;2023-02-11T05:10:25;31.13;;;20.27;;
20476;SDS011;10397;50.948;11.092;2023-02-11T05:12:56;35.60;;;20.87;;
20476;SDS011;10397;50.948;11.092;2023-02-11T05:15:27;36.33;;;20.77;;
20476;SDS011;10397;50.948;11.092;2023-02-11T05:17:57;34.70;;;21.37;;
20476;SDS011;10397;50.948;11.092;2023-02-11T05:20:28;32.17;;;20.77;;
20476;SDS011;10397;50.948;11.092;2023-02-11T05:22:59;29.97;;;20.20;;
20476;SDS011;10397;50.948;11.092;2023-02-11T05:25:30;33.77;;;20.77;;
20476;SDS011;10397;50.948;11.092;2023-02-11T05:28:01;32.47;;;20.40;;
20476;SDS011;10397;50.948;11.092;2023-02-11T05:30:31;32.87;;;21.00;;
20476;SDS011;10397;50.948;11.092;2023-02-11T05:33:02;36.23;;;21.83;;
20476;SDS011;10397;50.948;11.092;2023-02-11T05:35:33;33.90;;;20.77;;
20476;SDS011;10397;50.948;11.092;2023-02-11T05:38:04;35.03;;;21.33;;
20476;SDS011;10397;50.948;11.092;2023-02-11T05:40:35;37.03;;;21.00;;
20476;SDS011;10397;50.948;11.092;2023-02-11T05:43:06;35.83;;;22.23;;
20476;SDS011;10397;50.948;11.092;2023-02-11T05:45:37;32.70;;;21.00;;
20476;SDS011;10397;50.948;11.092;2023-02-11T05:48:08;36.20;;;21.40;;
20476;SDS011;10397;50.948;11.092;2023-02-11T05:50:39;29.07;;;19.90;;
20476;SDS011;10397;50.948;11.092;2023-02-11T05:53:10;30.37;;;20.10;;
20476;SDS011;10397;50.948;11.092;2023-02-11T05:55:41;32.17;;;21.33;;
20476;SDS011;10397;50.948;11.092;2023-02-11T05:58:12;39.33;;;21.40;;
20476;SDS011;10397;50.948;11.092;2023-02-11T06:00:43;32.53;;;20.73;;
20476;SDS011;10397;50.948;11.092;2023-02-11T06:03:13;30.17;;;19.87;;
20476;SDS011;10397;50.948;11.092;2023-02-11T06:05:44;35.43;;;22.20;;
20476;SDS011;10397;50.948;11.092;2023-02-11T06:08:15;30.30;;;20.90;;
20476;SDS011;10397;50.948;11.092;2023-02-11T06:10:46;35.00;;;21.20;;
20476;SDS011;10397;50.948;11.092;2023-02-11T06:13:17;35.23;;;23.00;;
20476;SDS011;10397;50.948;11.092;2023-02-11T06:15:54;41.20;;;24.90;;
20476;SDS011;10397;50.948;11.092;2023-02-11T06:18:24;35.83;;;21.13;;
20476;SDS011;10397;50.948;11.092;2023-02-11T06:20:55;31.20;;;21.50;;
20476;SDS011;10397;50.948;11.092;2023-02-11T06:23:26;29.77;;;20.53;;
20476;SDS011;10397;50.948;11.092;2023-02-11T06:26:00;29.17;;;18.70;;
20476;SDS011;10397;50.948;11.092;2023-02-11T06:28:27;29.37;;;20.50;;
20476;SDS011;10397;50.948;11.092;2023-02-11T06:31:04;29.97;;;19.63;;
20476;SDS011;10397;50.948;11.092;2023-02-11T06:33:34;35.50;;;20.20;;
20476;SDS011;10397;50.948;11.092;2023-02-11T06:36:10;30.73;;;21.00;;
20476;SDS011;10397;50.948;11.092;2023-02-11T06:38:35;40.07;;;22.10;;
20476;SDS011;10397;50.948;11.092;2023-02-11T06:41:08;30.10;;;20.43;;
20476;SDS011;10397;50.948;11.092;2023-02-11T06:43:36;31.57;;;20.97;;
20476;SDS011;10397;50.948;11.092;2023-02-11T06:46:07;36.63;;;20.33;;
20476;SDS011;10397;50.948;11.092;2023-02-11T06:48:37;29.70;;;21.40;;
20476;SDS011;10397;50.948;11.092;2023-02-11T06:51:09;28.43;;;19.73;;
20476;SDS011;10397;50.948;11.092;2023-02-11T06:53:42;31.90;;;21.63;;
20476;SDS011;10397;50.948;11.092;2023-02-11T06:56:15;31.90;;;21.03;;
20476;SDS011;10397;50.948;11.092;2023-02-11T06:58:51;33.80;;;21.97;;
20476;SDS011;10397;50.948;11.092;2023-02-11T07:01:22;31.57;;;21.53;;
20476;SDS011;10397;50.948;11.092;2023-02-11T07:03:52;31.03;;;20.47;;
20476;SDS011;10397;50.948;11.092;2023-02-11T07:06:24;32.73;;;19.17;;
20476;SDS011;10397;50.948;11.092;2023-02-11T07:08:53;29.17;;;20.47;;
20476;SDS011;10397;50.948;11.092;2023-02-11T07:11:24;34.17;;;21.27;;
20476;SDS011;10397;50.948;11.092;2023-02-11T07:13:55;31.17;;;20.57;;
20476;SDS011;10397;50.948;11.092;2023-02-11T07:16:24;29.70;;;19.93;;
20476;SDS011;10397;50.948;11.092;2023-02-11T07:18:55;30.63;;;20.47;;
20476;SDS011;10397;50.948;11.092;2023-02-11T07:21:26;29.73;;;22.00;;
20476;SDS011;10397;50.948;11.092;2023-02-11T07:23:57;30.90;;;19.93;;
20476;SDS011;10397;50.948;11.092;2023-02-11T07:26:28;31.60;;;20.27;;
20476;SDS011;10397;50.948;11.092;2023-02-11T07:28:58;36.60;;;19.93;;
20476;SDS011;10397;50.948;11.092;2023-02-11T07:31:29;36.17;;;22.50;;
20476;SDS011;10397;50.948;11.092;2023-02-11T07:34:00;33.43;;;20.03;;
20476;SDS011;10397;50.948;11.092;2023-02-11T07:36:30;30.80;;;20.23;;
20476;SDS011;10397;50.948;11.092;2023-02-11T07:39:01;34.30;;;22.20;;
20476;SDS011;10397;50.948;11.092;2023-02-11T07:41:32;31.73;;;21.13;;
20476;SDS011;10397;50.948;11.092;2023-02-11T07:44:03;35.90;;;21.13;;
20476;SDS011;10397;50.948;11.092;2023-02-11T07:46:34;33.80;;;21.37;;
20476;SDS011;10397;50.948;11.092;2023-02-11T07:49:05;33.57;;;20.60;;
20476;SDS011;10397;50.948;11.092;2023-02-11T07:51:36;32.53;;;21.47;;
20476;SDS011;10397;50.948;11.092;2023-02-11T07:54:06;31.70;;;21.07;;
20476;SDS011;10397;50.948;11.092;2023-02-11T07:56:37;34.23;;;21.23;;
20476;SDS011;10397;50.948;11.092;2023-02-11T07:59:09;33.03;;;20.50;;
20476;SDS011;10397;50.948;11.092;2023-02-11T08:01:38;31.53;;;18.90;;
20476;SDS011;10397;50.948;11.092;2023-02-11T08:04:09;33.37;;;20.20;;
20476;SDS011;10397;50.948;11.092;2023-02-11T08:06:40;31.33;;;21.53;;
20476;SDS011;10397;50.948;11.092;2023-02-11T08:09:12;34.80;;;20.43;;
20476;SDS011;10397;50.948;11.092;2023-02-11T08:11:41;32.03;;;20.33;;
20476;SDS011;10397;50.948;11.092;2023-02-11T08:14:11;34.43;;;20.97;;
20476;SDS011;10397;50.948;11.092;2023-02-11T08:16:42;32.07;;;21.70;;
20476;SDS011;10397;50.948;11.092;2023-02-11T08:19:14;33.57;;;21.83;;
20476;SDS011;10397;50.948;11.092;2023-02-11T08:21:44;31.03;;;22.47;;
20476;SDS011;10397;50.948;11.092;2023-02-11T08:24:15;34.57;;;21.20;;
20476;SDS011;10397;50.948;11.092;2023-02-11T08:26:46;36.00;;;21.63;;
20476;SDS011;10397;50.948;11.092;2023-02-11T08:29:17;37.60;;;23.40;;
20476;SDS011;10397;50.948;11.092;2023-02-11T08:31:48;36.70;;;22.70;;
20476;SDS011;10397;50.948;11.092;2023-02-11T08:34:19;33.03;;;21.77;;
20476;SDS011;10397;50.948;11.092;2023-02-11T08:36:50;32.53;;;21.40;;
20476;SDS011;10397;50.948;11.092;2023-02-11T08:39:21;36.83;;;23.37;;
20476;SDS011;10397;50.948;11.092;2023-02-11T08:41:52;39.30;;;24.80;;
20476;SDS011;10397;50.948;11.092;2023-02-11T08:44:22;31.50;;;22.03;;
20476;SDS011;10397;50.948;11.092;2023-02-11T08:46:52;36.63;;;22.03;;
20476;SDS011;10397;50.948;11.092;2023-02-11T08:49:23;32.77;;;22.17;;
20476;SDS011;10397;50.948;11.092;2023-02-11T08:51:54;30.67;;;21.63;;
20476;SDS011;10397;50.948;11.092;2023-02-11T08:54:25;40.80;;;23.27;;
20476;SDS011;10397;50.948;11.092;2023-02-11T08:56:56;34.77;;;23.87;;
20476;SDS011;10397;50.948;11.092;2023-02-11T08:59:26;31.97;;;20.53;;
20476;SDS011;10397;50.948;11.092;2023-02-11T09:01:57;33.30;;;22.23;;
20476;SDS011;10397;50.948;11.092;2023-02-11T09:04:28;31.67;;;21.00;;
20476;SDS011;10397;50.948;11.092;2023-02-11T09:06:59;31.23;;;20.67;;
20476;SDS011;10397;50.948;11.092;2023-02-11T09:09:29;35.50;;;21.80;;
20476;SDS011;10397;50.948;11.092;2023-02-11T09:12:00;31.10;;;21.73;;
20476;SDS011;10397;50.948;11.092;2023-02-11T09:14:31;35.23;;;21.23;;
20476;SDS011;10397;50.948;11.092;2023-02-11T09:17:02;31.40;;;19.80;;
20476;SDS011;10397;50.948;11.092;2023-02-11T09:19:33;27.20;;;20.13;;
20476;SDS011;10397;50.948;11.092;2023-02-11T09:22:03;34.73;;;21.57;;
20476;SDS011;10397;50.948;11.092;2023-02-11T09:24:35;26.77;;;18.33;;
20476;SDS011;10397;50.948;11.092;2023-02-11T09:27:06;27.67;;;18.67;;
20476;SDS011;10397;50.948;11.092;2023-02-11T09:29:37;26.93;;;19.23;;
20476;SDS011;10397;50.948;11.092;2023-02-11T09:32:08;29.23;;;19.37;;
20476;SDS011;10397;50.948;11.092;2023-02-11T09:34:39;31.33;;;19.30;;
20476;SDS011;10397;50.948;11.092;2023-02-11T09:37:10;27.93;;;18.60;;
20476;SDS011;10397;50.948;11.092;2023-02-11T09:39:41;24.47;;;16.97;;
20476;SDS011;10397;50.948;11.092;2023-02-11T09:42:18;33.10;;;20.53;;
20476;SDS011;10397;50.948;11.092;2023-02-11T09:44:48;26.53;;;18.07;;
20476;SDS011;10397;50.948;11.092;2023-02-11T09:47:23;26.83;;;17.83;;
20476;SDS011;10397;50.948;11.092;2023-02-11T09:50:02;22.27;;;16.97;;
20476;SDS011;10397;50.948;11.092;2023-02-11T09:52:44;26.93;;;18.43;;
20476;SDS011;10397;50.948;11.092;2023-02-11T09:55:20;26.70;;;18.03;;
20476;SDS011;10397;50.948;11.092;2023-02-11T09:57:50;23.10;;;17.00;;
20476;SDS011;10397;50.948;11.092;2023-02-11T10:08:58;24.50;;;17.07;;
20476;SDS011;10397;50.948;11.092;2023-02-11T10:14:20;25.67;;;17.87;;
20476;SDS011;10397;50.948;11.092;2023-02-11T10:17:01;21.93;;;15.30;;
20476;SDS011;10397;50.948;11.092;2023-02-11T10:22:26;22.30;;;16.33;;
20476;SDS011;10397;50.948;11.092;2023-02-11T10:25:22;23.20;;;16.73;;
20476;SDS011;10397;50.948;11.092;2023-02-11T10:27:56;20.73;;;15.93;;
20476;SDS011;10397;50.948;11.092;2023-02-11T10:30:29;22.20;;;15.93;;
20476;SDS011;10397;50.948;11.092;2023-02-11T10:33:05;22.27;;;16.60;;
20476;SDS011;10397;50.948;11.092;2023-02-11T10:35:34;25.43;;;17.10;;
20476;SDS011;10397;50.948;11.092;2023-02-11T10:38:05;22.43;;;16.83;;
20476;SDS011;10397;50.948;11.092;2023-02-11T10:40:35;20.87;;;16.33;;
20476;SDS011;10397;50.948;11.092;2023-02-11T10:43:09;20.10;;;16.53;;
20476;SDS011;10397;50.948;11.092;2023-02-11T10:45:49;21.97;;;16.80;;
20476;SDS011;10397;50.948;11.092;2023-02-11T10:48:38;21.10;;;16.50;;
20476;SDS011;10397;50.948;11.092;2023-02-11T10:53:48;21.20;;;16.83;;
20476;SDS011;10397;50.948;11.092;2023-02-11T10:56:37;24.50;;;17.80;;
20476;SDS011;10397;50.948;11.092;2023-02-11T10:59:13;19.47;;;15.37;;
20476;SDS011;10397;50.948;11.092;2023-02-11T11:01:41;20.77;;;16.93;;
20476;SDS011;10397;50.948;11.092;2023-02-11T11:07:20;22.53;;;17.80;;
20476;SDS011;10397;50.948;11.092;2023-02-11T11:09:54;23.50;;;16.27;;
20476;SDS011;10397;50.948;11.092;2023-02-11T11:12:28;20.83;;;16.13;;
20476;SDS011;10397;50.948;11.092;2023-02-11T11:14:58;20.70;;;16.00;;
20476;SDS011;10397;50.948;11.092;2023-02-11T11:17:27;20.23;;;15.10;;
20476;SDS011;10397;50.948;11.092;2023-02-11T11:22:51;24.10;;;15.30;;
20476;SDS011;10397;50.948;11.092;2023-02-11T11:25:27;18.50;;;15.10;;
20476;SDS011;10397;50.948;11.092;2023-02-11T11:27:58;24.53;;;16.17;;
20476;SDS011;10397;50.948;11.092;2023-02-11T11:30:32;18.33;;;14.30;;
20476;SDS011;10397;50.948;11.092;2023-02-11T11:33:04;16.20;;;13.83;;
20476;SDS011;10397;50.948;11.092;2023-02-11T11:35:35;19.10;;;14.73;;
20476;SDS011;10397;50.948;11.092;2023-02-11T11:38:06;17.57;;;13.37;;
20476;SDS011;10397;50.948;11.092;2023-02-11T11:40:37;19.90;;;14.37;;
20476;SDS011;10397;50.948;11.092;2023-02-11T11:45:57;16.27;;;13.53;;
20476;SDS011;10397;50.948;11.092;2023-02-11T11:48:27;14.17;;;12.07;;
20476;SDS011;10397;50.948;11.092;2023-02-11T11:51:09;16.73;;;14.17;;
20476;SDS011;10397;50.948;11.092;2023-02-11T11:56:20;16.17;;;13.00;;
20476;SDS011;10397;50.948;11.092;2023-02-11T11:58:49;16.67;;;12.23;;
20476;SDS011;10397;50.948;11.092;2023-02-11T12:04:03;17.03;;;12.83;;
20476;SDS011;10397;50.948;11.092;2023-02-11T12:12:28;16.07;;;11.97;;
20476;SDS011;10397;50.948;11.092;2023-02-11T12:14:58;15.57;;;12.37;;
20476;SDS011;10397;50.948;11.092;2023-02-11T12:17:41;15.93;;;12.87;;
20476;SDS011;10397;50.948;11.092;2023-02-11T12:23:31;17.23;;;12.17;;
20476;SDS011;10397;50.948;11.092;2023-02-11T12:26:11;16.87;;;12.87;;
20476;SDS011;10397;50.948;11.092;2023-02-11T12:37:38;13.60;;;12.23;;
20476;SDS011;10397;50.948;11.092;2023-02-11T12:54:23;14.97;;;11.50;;
20476;SDS011;10397;50.948;11.092;2023-02-11T12:57:06;15.13;;;11.53;;
20476;SDS011;10397;50.948;11.092;2023-02-11T12:59:50;16.47;;;12.47;;
20476;SDS011;10397;50.948;11.092;2023-02-11T13:02:34;15.37;;;11.63;;
20476;SDS011;10397;50.948;11.092;2023-02-11T13:05:22;16.23;;;12.67;;
20476;SDS011;10397;50.948;11.092;2023-02-11T13:08:27;14.30;;;11.80;;
20476;SDS011;10397;50.948;11.092;2023-02-11T13:11:02;15.60;;;12.20;;
20476;SDS011;10397;50.948;11.092;2023-02-11T13:13:36;18.43;;;12.70;;
20476;SDS011;10397;50.948;11.092;2023-02-11T13:16:06;12.87;;;11.03;;
20476;SDS011;10397;50.948;11.092;2023-02-11T13:18:50;13.50;;;10.47;;
20476;SDS011;10397;50.948;11.092;2023-02-11T13:21:35;12.93;;;11.03;;
20476;SDS011;10397;50.948;11.092;2023-02-11T13:27:40;13.57;;;11.77;;
20476;SDS011;10397;50.948;11.092;2023-02-11T13:29:41;15.30;;;11.60;;
20476;SDS011;10397;50.948;11.092;2023-02-11T13:32:10;13.77;;;11.20;;
20476;SDS011;10397;50.948;11.092;2023-02-11T13:40:39;15.23;;;11.57;;
20476;SDS011;10397;50.948;11.092;2023-02-11T13:42:29;16.60;;;12.33;;
20476;SDS011;10397;50.948;11.092;2023-02-11T13:44:59;15.13;;;12.67;;
20476;SDS011;10397;50.948;11.092;2023-02-11T13:47:31;14.60;;;11.83;;
20476;SDS011;10397;50.948;11.092;2023-02-11T13:50:02;15.77;;;11.50;;
20476;SDS011;10397;50.948;11.092;2023-02-11T13:52:34;13.47;;;11.80;;
20476;SDS011;10397;50.948;11.092;2023-02-11T13:55:14;13.20;;;11.27;;
20476;SDS011;10397;50.948;11.092;2023-02-11T13:57:44;19.40;;;12.37;;
20476;SDS011;10397;50.948;11.092;2023-02-11T14:06:20;14.07;;;12.53;;
20476;SDS011;10397;50.948;11.092;2023-02-11T14:11:53;15.30;;;11.97;;
20476;SDS011;10397;50.948;11.092;2023-02-11T14:14:30;15.93;;;12.73;;
20476;SDS011;10397;50.948;11.092;2023-02-11T14:22:14;14.80;;;12.23;;
20476;SDS011;10397;50.948;11.092;2023-02-11T14:24:54;13.87;;;11.93;;
20476;SDS011;10397;50.948;11.092;2023-02-11T14:27:40;16.70;;;12.40;;
20476;SDS011;10397;50.948;11.092;2023-02-11T14:30:19;14.40;;;11.97;;
20476;SDS011;10397;50.948;11.092;2023-02-11T14:33:37;16.67;;;13.30;;
20476;SDS011;10397;50.948;11.092;2023-02-11T14:38:45;21.07;;;14.80;;
20476;SDS011;10397;50.948;11.092;2023-02-11T14:41:21;18.50;;;15.07;;
20476;SDS011;10397;50.948;11.092;2023-02-11T14:44:00;17.97;;;15.00;;
20476;SDS011;10397;50.948;11.092;2023-02-11T14:46:35;18.17;;;13.87;;
20476;SDS011;10397;50.948;11.092;2023-02-11T14:49:06;13.27;;;11.63;;
20476;SDS011;10397;50.948;11.092;2023-02-11T14:51:40;18.63;;;14.27;;
20476;SDS011;10397;50.948;11.092;2023-02-11T14:54:11;19.30;;;13.17;;
20476;SDS011;10397;50.948;11.092;2023-02-11T14:56:41;17.73;;;13.17;;
20476;SDS011;10397;50.948;11.092;2023-02-11T14:59:19;17.30;;;12.70;;
20476;SDS011;10397;50.948;11.092;2023-02-11T15:01:49;16.87;;;13.07;;
20476;SDS011;10397;50.948;11.092;2023-02-11T15:04:23;15.33;;;13.27;;
20476;SDS011;10397;50.948;11.092;2023-02-11T15:06:52;19.23;;;14.23;;
20476;SDS011;10397;50.948;11.092;2023-02-11T15:09:31;19.47;;;13.17;;
20476;SDS011;10397;50.948;11.092;2023-02-11T15:11:53;19.57;;;13.90;;
20476;SDS011;10397;50.948;11.092;2023-02-11T15:14:31;15.23;;;12.27;;
20476;SDS011;10397;50.948;11.092;2023-02-11T15:17:05;20.07;;;14.27;;
20476;SDS011;10397;50.948;11.092;2023-02-11T15:19:34;18.27;;;13.60;;
20476;SDS011;10397;50.948;11.092;2023-02-11T15:22:55;16.75;;;13.28;;
20476;SDS011;10397;50.948;11.092;2023-02-11T15:25:01;17.40;;;12.63;;
20476;SDS011;10397;50.948;11.092;2023-02-11T15:27:39;19.03;;;13.70;;
20476;SDS011;10397;50.948;11.092;2023-02-11T15:32:53;18.03;;;14.53;;
20476;SDS011;10397;50.948;11.092;2023-02-11T15:35:30;17.93;;;13.97;;
20476;SDS011;10397;50.948;11.092;2023-02-11T15:37:59;19.17;;;14.00;;
20476;SDS011;10397;50.948;11.092;2023-02-11T15:40:30;19.13;;;14.07;;
20476;SDS011;10397;50.948;11.092;2023-02-11T15:43:00;16.27;;;13.70;;
20476;SDS011;10397;50.948;11.092;2023-02-11T15:48:33;16.53;;;14.30;;
20476;SDS011;10397;50.948;11.092;2023-02-11T15:51:07;20.83;;;14.87;;
20476;SDS011;10397;50.948;11.092;2023-02-11T15:53:35;17.43;;;13.47;;
20476;SDS011;10397;50.948;11.092;2023-02-11T15:56:10;17.13;;;13.27;;
20476;SDS011;10397;50.948;11.092;2023-02-11T15:58:39;25.57;;;19.00;;
20476;SDS011;10397;50.948;11.092;2023-02-11T16:01:09;19.23;;;13.13;;
20476;SDS011;10397;50.948;11.092;2023-02-11T16:03:40;25.13;;;16.77;;
20476;SDS011;10397;50.948;11.092;2023-02-11T16:06:17;15.13;;;12.43;;
20476;SDS011;10397;50.948;11.092;2023-02-11T16:09:01;15.33;;;12.40;;
20476;SDS011;10397;50.948;11.092;2023-02-11T16:14:30;16.83;;;13.33;;
20476;SDS011;10397;50.948;11.092;2023-02-11T16:17:06;26.30;;;17.00;;
20476;SDS011;10397;50.948;11.092;2023-02-11T16:19:45;20.73;;;15.87;;
20476;SDS011;10397;50.948;11.092;2023-02-11T16:22:19;17.60;;;14.10;;
20476;SDS011;10397;50.948;11.092;2023-02-11T16:24:48;16.83;;;12.87;;
20476;SDS011;10397;50.948;11.092;2023-02-11T16:27:25;14.87;;;13.10;;
20476;SDS011;10397;50.948;11.092;2023-02-11T16:29:55;37.33;;;25.17;;
20476;SDS011;10397;50.948;11.092;2023-02-11T16:32:25;17.00;;;12.27;;
20476;SDS011;10397;50.948;11.092;2023-02-11T16:34:56;15.47;;;12.77;;
20476;SDS011;10397;50.948;11.092;2023-02-11T16:37:25;22.93;;;13.50;;
20476;SDS011;10397;50.948;11.092;2023-02-11T16:39:56;22.27;;;15.83;;
20476;SDS011;10397;50.948;11.092;2023-02-11T16:42:27;14.53;;;12.33;;
20476;SDS011;10397;50.948;11.092;2023-02-11T16:44:58;16.90;;;12.27;;
20476;SDS011;10397;50.948;11.092;2023-02-11T16:47:29;19.23;;;13.60;;
20476;SDS011;10397;50.948;11.092;2023-02-11T16:50:01;15.53;;;12.63;;
20476;SDS011;10397;50.948;11.092;2023-02-11T16:52:31;14.20;;;11.63;;